CYXS

Prince George

Airport
ICAO code
CYXS
Summary
ICAO Region
NAM
ICAO Territory
Location

Prince George, British Columbia,

Coordinates
53° 53' 22" N , 122° 40' 44" W
KCC
Metar
Observation
CYXS 280400Z AUTO 01012G19KT 9SM CLR M09/M16 A2997 RMK SLP195
Station
Prince George, B. C.
Date/Time
2022-11-28 04:00:00
Wind direction
10°
Wind speed
12 kts
Lowest cloud amount
n/a
Temperature
-9°C
Dew point
-16°C
Humidity
56%
Weather condition
n/a

Description

Prince George Airport is an airport that serves Prince George, British Columbia, Canada, and the surrounding area. It is located just within the southern boundary of the city, 2.8 nm southeast.

Climatology

Humid Continental climate (Köppen climate classification Dfb) - Variable weather patterns and a large seasonal temperature variance. Summers are often warm and humid with frequent thunderstorms and winters can be very cold with frequent snowfall and persistent snow cover.

Runways

Designator Length Width Surface Rops
1/19 1149 23 ASP Yes/Yes
6/24 1715 46 ASP Yes/Yes
15/33 3490 46 ASP Yes/Yes

Airport map

Aerial View

SKYbrary Partners:

Safety knowledge contributed by: